createdAt,value
2019-03-23T00:00:52.270Z,13.87
2019-03-23T00:03:19.776Z,13.84
2019-03-23T00:05:47.272Z,13.96
2019-03-23T00:08:14.705Z,13.76
2019-03-23T00:10:42.171Z,13.84
2019-03-23T00:13:09.644Z,13.74
2019-03-23T00:15:45.694Z,13.57
2019-03-23T00:18:13.158Z,13.41
2019-03-23T00:20:40.629Z,13.38
2019-03-23T00:23:08.085Z,13.29
2019-03-23T00:25:35.558Z,13.17
2019-03-23T00:28:03.032Z,13.22
2019-03-23T00:30:30.494Z,12.88
2019-03-23T00:32:57.978Z,12.93
2019-03-23T00:35:25.501Z,12.85
2019-03-23T00:37:52.997Z,12.77
2019-03-23T00:40:20.450Z,12.63
2019-03-23T00:42:47.932Z,12.59
2019-03-23T00:45:15.403Z,12.49
2019-03-23T00:47:42.874Z,12.39
2019-03-23T00:50:11.262Z,12.55
2019-03-23T00:52:38.771Z,12.35
2019-03-23T00:55:06.865Z,12.42
2019-03-23T00:57:34.343Z,12.24
2019-03-23T01:00:01.831Z,12.40
2019-03-23T01:02:29.284Z,12.32
2019-03-23T01:04:56.758Z,12.32
2019-03-23T01:07:24.224Z,12.41
2019-03-23T01:09:51.656Z,12.35
2019-03-23T01:12:19.127Z,12.32
2019-03-23T01:14:46.614Z,12.26
2019-03-23T01:17:14.081Z,12.20
2019-03-23T01:19:41.559Z,12.33
2019-03-23T01:22:09.039Z,12.39
2019-03-23T01:24:36.478Z,12.54
2019-03-23T01:27:03.942Z,12.46
2019-03-23T01:29:31.423Z,12.40
2019-03-23T01:31:58.906Z,12.40
2019-03-23T01:34:26.388Z,12.27
2019-03-23T01:37:02.523Z,12.04
2019-03-23T01:39:21.339Z,12.18
2019-03-23T01:41:48.833Z,11.97
2019-03-23T01:44:16.259Z,12.24
2019-03-23T01:46:43.743Z,12.27
2019-03-23T01:49:11.241Z,11.93
2019-03-23T01:51:38.744Z,11.60
2019-03-23T01:54:06.936Z,11.57
2019-03-23T01:56:34.413Z,11.96
2019-03-23T01:59:01.893Z,11.82
2019-03-23T02:01:29.370Z,11.53
2019-03-23T02:03:56.875Z,11.50
2019-03-23T02:06:24.341Z,11.42
2019-03-23T02:08:51.833Z,11.43
2019-03-23T02:11:19.273Z,11.24
2019-03-23T02:13:46.754Z,11.56
2019-03-23T02:16:14.218Z,11.37
2019-03-23T02:18:41.675Z,11.24
2019-03-23T02:21:09.163Z,11.21
2019-03-23T02:23:37.491Z,11.32
2019-03-23T02:26:06.004Z,11.01
2019-03-23T02:28:33.567Z,11.14
2019-03-23T02:31:01.027Z,10.57
2019-03-23T02:33:28.483Z,10.64
2019-03-23T02:35:55.983Z,10.94
2019-03-23T02:38:23.478Z,10.98
2019-03-23T02:40:50.928Z,10.63
2019-03-23T02:43:18.395Z,10.77
2019-03-23T02:45:45.879Z,10.51
2019-03-23T02:48:13.350Z,10.23
2019-03-23T02:50:40.838Z,10.32
2019-03-23T02:53:08.320Z,10.28
2019-03-23T02:55:35.788Z,10.08
2019-03-23T02:58:03.286Z,9.87
2019-03-23T03:00:30.759Z,10.10
2019-03-23T03:02:58.231Z,9.82
2019-03-23T03:05:25.714Z,9.76
2019-03-23T03:07:53.174Z,9.80
2019-03-23T03:10:35.534Z,9.79
2019-03-23T03:13:03.043Z,9.44
2019-03-23T03:15:30.494Z,9.60
2019-03-23T03:17:58.574Z,9.46
2019-03-23T03:20:26.038Z,9.59
2019-03-23T03:22:53.521Z,9.38
2019-03-23T03:25:21.013Z,10.18
2019-03-23T03:27:48.472Z,10.43
2019-03-23T03:30:15.924Z,10.66
2019-03-23T03:32:43.467Z,10.81
2019-03-23T03:35:10.938Z,10.06
2019-03-23T03:37:38.719Z,9.16
2019-03-23T03:40:06.187Z,9.53
2019-03-23T03:42:33.674Z,9.92
2019-03-23T03:45:01.168Z,9.95
2019-03-23T03:47:28.656Z,10.37
2019-03-23T03:49:56.106Z,10.57
2019-03-23T03:52:23.552Z,10.02
2019-03-23T03:54:51.058Z,9.79
2019-03-23T03:57:18.517Z,10.17
2019-03-23T03:59:45.987Z,9.69
2019-03-23T04:02:13.439Z,10.17
2019-03-23T04:04:40.898Z,9.49
2019-03-23T04:07:09.183Z,9.14
2019-03-23T04:09:36.641Z,9.55
2019-03-23T04:12:04.101Z,8.66
2019-03-23T04:14:31.540Z,9.42
2019-03-23T04:16:59.025Z,9.15
2019-03-23T04:19:26.472Z,9.35
2019-03-23T04:21:53.919Z,9.10
2019-03-23T04:24:21.343Z,9.53
2019-03-23T04:26:48.798Z,9.06
2019-03-23T04:29:16.265Z,9.25
2019-03-23T04:31:43.713Z,9.61
2019-03-23T04:34:12.039Z,9.61
2019-03-23T04:36:39.771Z,9.44
2019-03-23T04:39:07.213Z,8.97
2019-03-23T04:41:34.709Z,9.11
2019-03-23T04:44:02.173Z,9.16
2019-03-23T04:46:29.647Z,8.97
2019-03-23T04:48:57.123Z,9.38
2019-03-23T04:51:24.635Z,8.94
2019-03-23T04:53:52.071Z,8.95
2019-03-23T04:56:19.562Z,8.99
2019-03-23T04:58:47.038Z,8.64
2019-03-23T05:01:14.500Z,9.02
2019-03-23T05:03:41.967Z,8.47
2019-03-23T05:06:10.242Z,8.97
2019-03-23T05:08:38.773Z,8.79
2019-03-23T05:11:06.279Z,9.18
2019-03-23T05:13:33.731Z,8.68
2019-03-23T05:16:01.177Z,8.34
2019-03-23T05:18:28.625Z,8.85
2019-03-23T05:20:56.091Z,8.76
2019-03-23T05:23:23.541Z,8.58
2019-03-23T05:25:51.002Z,8.96
2019-03-23T05:28:18.453Z,8.92
2019-03-23T05:30:45.931Z,9.14
2019-03-23T05:33:13.366Z,9.30
2019-03-23T05:35:40.863Z,8.81
2019-03-23T05:38:08.327Z,8.51
2019-03-23T05:40:35.845Z,8.44
2019-03-23T05:43:03.351Z,8.49
2019-03-23T05:45:30.838Z,8.83
2019-03-23T05:47:58.331Z,9.09
2019-03-23T05:50:25.763Z,8.76
2019-03-23T05:52:53.221Z,8.93
2019-03-23T05:55:20.655Z,9.05
2019-03-23T05:57:48.142Z,9.18
2019-03-23T06:00:15.610Z,9.16
2019-03-23T06:02:43.102Z,8.61
2019-03-23T06:05:11.370Z,8.65
2019-03-23T06:07:38.835Z,8.13
2019-03-23T06:10:06.292Z,8.37
2019-03-23T06:12:33.759Z,8.73
2019-03-23T06:15:01.260Z,8.34
2019-03-23T06:17:28.723Z,8.23
2019-03-23T06:19:56.226Z,8.40
2019-03-23T06:22:23.665Z,8.17
2019-03-23T06:24:51.114Z,8.16
2019-03-23T06:27:18.581Z,8.35
2019-03-23T06:29:46.059Z,8.19
2019-03-23T06:32:13.515Z,8.18
2019-03-23T06:34:41.833Z,8.53
2019-03-23T06:37:09.322Z,8.28
2019-03-23T06:39:36.781Z,8.20
2019-03-23T06:42:05.364Z,8.25
2019-03-23T06:44:32.913Z,8.56
2019-03-23T06:47:00.385Z,8.41
2019-03-23T06:49:27.883Z,8.75
2019-03-23T06:51:55.340Z,8.61
2019-03-23T06:54:22.818Z,8.55
2019-03-23T06:56:50.293Z,8.60
2019-03-23T06:59:17.779Z,8.43
2019-03-23T07:01:45.235Z,8.71
2019-03-23T07:04:12.712Z,8.69
2019-03-23T07:06:40.192Z,8.80
2019-03-23T07:09:15.778Z,8.87
2019-03-23T07:11:35.201Z,9.18
2019-03-23T07:14:02.665Z,9.49
2019-03-23T07:16:30.122Z,9.23
2019-03-23T07:18:57.585Z,9.00
2019-03-23T07:21:25.030Z,9.02
2019-03-23T07:23:52.460Z,8.52
2019-03-23T07:26:19.942Z,8.83
2019-03-23T07:28:47.395Z,8.71
2019-03-23T07:31:14.872Z,8.53
2019-03-23T07:33:43.110Z,8.50
2019-03-23T07:36:10.578Z,8.84
2019-03-23T07:38:38.057Z,8.29
2019-03-23T07:41:05.561Z,8.62
2019-03-23T07:43:33.107Z,8.80
2019-03-23T07:46:00.546Z,8.86
2019-03-23T07:48:28.606Z,9.12
2019-03-23T07:50:57.833Z,9.35
2019-03-23T07:53:25.417Z,9.36
2019-03-23T07:55:52.843Z,9.42
2019-03-23T07:58:20.359Z,9.37
2019-03-23T08:00:47.808Z,9.62
2019-03-23T08:03:16.009Z,9.21
2019-03-23T08:05:43.863Z,9.27
2019-03-23T08:08:11.343Z,9.45
2019-03-23T08:10:38.829Z,9.30
2019-03-23T08:13:06.301Z,9.07
2019-03-23T08:15:33.771Z,9.35
2019-03-23T08:18:01.284Z,9.03
2019-03-23T08:20:28.797Z,9.13
2019-03-23T08:22:56.268Z,8.97
2019-03-23T08:25:23.758Z,9.22
2019-03-23T08:27:51.219Z,9.16
2019-03-23T08:30:18.690Z,9.22
2019-03-23T08:32:46.151Z,9.47
2019-03-23T08:35:14.249Z,9.54
2019-03-23T08:37:44.133Z,9.39
2019-03-23T08:40:11.796Z,9.67
2019-03-23T08:42:39.287Z,9.47
2019-03-23T08:45:06.797Z,9.56
2019-03-23T08:47:34.255Z,9.26
2019-03-23T08:50:02.314Z,9.19
2019-03-23T08:52:29.834Z,9.32
2019-03-23T08:54:57.329Z,9.43
2019-03-23T08:57:24.822Z,9.62
2019-03-23T08:59:52.309Z,9.64
2019-03-23T09:02:21.700Z,9.52
2019-03-23T09:04:47.290Z,9.42
2019-03-23T09:07:14.793Z,9.49
2019-03-23T09:09:42.271Z,9.49
2019-03-23T09:12:09.726Z,9.73
2019-03-23T09:14:37.242Z,9.95
2019-03-23T09:17:04.734Z,9.42
2019-03-23T09:19:32.172Z,9.54
2019-03-23T09:21:59.658Z,9.81
2019-03-23T09:24:27.119Z,10.15
2019-03-23T09:26:54.616Z,9.74
2019-03-23T09:29:22.104Z,9.63
2019-03-23T09:31:49.570Z,9.98
2019-03-23T09:34:17.053Z,10.22
2019-03-23T09:36:46.223Z,9.79
2019-03-23T09:39:13.790Z,9.64
2019-03-23T09:41:41.259Z,9.59
2019-03-23T09:44:08.726Z,9.94
2019-03-23T09:46:36.214Z,9.50
2019-03-23T09:49:04.335Z,9.51
2019-03-23T09:51:32.735Z,9.57
2019-03-23T09:54:00.187Z,10.12
2019-03-23T09:56:27.629Z,9.97
2019-03-23T09:58:55.094Z,9.92
2019-03-23T10:01:22.544Z,10.07
2019-03-23T10:03:50.031Z,10.07
2019-03-23T10:06:17.502Z,9.92
2019-03-23T10:08:46.539Z,10.00
2019-03-23T10:11:13.458Z,9.79
2019-03-23T10:13:40.928Z,9.52
2019-03-23T10:16:08.370Z,9.85
2019-03-23T10:18:35.824Z,9.67
2019-03-23T10:21:03.275Z,9.83
2019-03-23T10:23:31.242Z,9.89
2019-03-23T10:25:58.731Z,9.71
2019-03-23T10:28:26.202Z,9.49
2019-03-23T10:30:53.656Z,9.45
2019-03-23T10:33:21.118Z,10.03
2019-03-23T10:35:48.587Z,9.86
2019-03-23T10:38:16.550Z,10.00
2019-03-23T10:40:44.012Z,10.23
2019-03-23T10:43:11.512Z,10.23
2019-03-23T10:45:44.111Z,10.15
2019-03-23T10:48:06.455Z,10.38
2019-03-23T10:50:33.918Z,10.42
2019-03-23T10:53:01.399Z,10.75
2019-03-23T10:55:28.977Z,10.94
2019-03-23T10:57:57.410Z,10.64
2019-03-23T11:00:24.911Z,10.37
2019-03-23T11:02:52.388Z,10.52
2019-03-23T11:05:19.846Z,10.52
2019-03-23T11:07:47.305Z,10.50
2019-03-23T11:10:14.786Z,10.75
2019-03-23T11:12:42.233Z,10.74
2019-03-23T11:15:09.728Z,10.81
2019-03-23T11:17:37.253Z,10.50
2019-03-23T11:20:04.736Z,10.73
2019-03-23T11:22:32.228Z,10.91
2019-03-23T11:24:59.791Z,11.25
2019-03-23T11:27:27.278Z,11.10
2019-03-23T11:29:54.710Z,11.03
2019-03-23T11:32:23.092Z,11.30
2019-03-23T11:34:50.702Z,11.61
2019-03-23T11:37:18.264Z,11.70
2019-03-23T11:39:45.786Z,11.84
2019-03-23T11:42:13.302Z,11.53
2019-03-23T11:44:43.178Z,11.33
2019-03-23T11:47:10.775Z,11.22
2019-03-23T11:49:38.239Z,11.63
2019-03-23T11:52:05.714Z,11.40
2019-03-23T11:54:33.189Z,11.89
2019-03-23T11:57:00.973Z,12.11
2019-03-23T11:59:28.434Z,12.22
2019-03-23T12:01:55.943Z,12.33
2019-03-23T12:04:25.048Z,12.41
2019-03-23T12:06:51.005Z,12.48
2019-03-23T12:09:18.481Z,12.53
2019-03-23T12:11:45.950Z,12.61
2019-03-23T12:14:13.407Z,12.34
2019-03-23T12:16:40.921Z,12.47
2019-03-23T12:19:09.200Z,12.50
2019-03-23T12:21:36.750Z,12.68
2019-03-23T12:24:04.195Z,12.44
2019-03-23T12:26:31.683Z,12.76
2019-03-23T12:28:59.196Z,12.84
2019-03-23T12:31:26.670Z,12.98
2019-03-23T12:33:54.160Z,12.99
2019-03-23T12:36:21.604Z,11.87
2019-03-23T12:38:49.126Z,12.48
2019-03-23T12:41:23.068Z,11.99
2019-03-23T12:43:44.165Z,11.82
2019-03-23T12:46:35.085Z,12.50
2019-03-23T12:49:02.592Z,12.19
2019-03-23T12:51:30.100Z,12.17
2019-03-23T12:53:57.553Z,12.59
2019-03-23T12:56:25.078Z,12.79
2019-03-23T12:58:52.586Z,12.96
2019-03-23T13:01:20.045Z,13.05
2019-03-23T13:03:47.576Z,12.95
2019-03-23T13:06:15.086Z,12.96
2019-03-23T13:08:42.538Z,12.74
2019-03-23T13:11:10.051Z,13.01
2019-03-23T13:13:37.523Z,13.18
2019-03-23T13:16:05.150Z,13.33
2019-03-23T13:18:32.686Z,12.61
2019-03-23T13:21:00.145Z,12.40
2019-03-23T13:23:27.618Z,12.18
2019-03-23T13:25:55.067Z,12.81
2019-03-23T13:28:22.560Z,12.89
2019-03-23T13:30:49.991Z,12.74
2019-03-23T13:33:17.460Z,12.57
2019-03-23T13:35:44.909Z,12.86
2019-03-23T13:38:12.373Z,13.08
2019-03-23T13:40:39.862Z,13.30
2019-03-23T13:43:07.326Z,13.43
2019-03-23T13:45:42.359Z,13.55
2019-03-23T13:48:02.303Z,13.66
2019-03-23T13:50:29.778Z,13.10
2019-03-23T13:52:57.235Z,13.43
2019-03-23T13:55:27.242Z,12.67
2019-03-23T13:57:54.733Z,12.97
2019-03-23T14:00:22.205Z,13.07
2019-03-23T14:02:50.332Z,13.16
2019-03-23T14:05:17.783Z,12.87
2019-03-23T14:07:45.243Z,13.22
2019-03-23T14:10:12.729Z,13.30
2019-03-23T14:12:40.175Z,13.48
2019-03-23T14:15:07.653Z,13.52
2019-03-23T14:17:35.083Z,13.72
2019-03-23T14:20:02.579Z,13.80
2019-03-23T14:22:30.048Z,13.86
2019-03-23T14:24:57.508Z,13.87
2019-03-23T14:27:25.021Z,13.92
2019-03-23T14:29:52.490Z,13.37
2019-03-23T14:32:20.692Z,13.54
2019-03-23T14:34:48.148Z,13.65
2019-03-23T14:37:15.626Z,13.83
2019-03-23T14:39:43.090Z,13.30
2019-03-23T14:42:10.550Z,13.21
2019-03-23T14:44:38.014Z,13.08
2019-03-23T14:47:05.475Z,13.44
2019-03-23T14:49:35.004Z,13.45
2019-03-23T14:52:02.489Z,13.16
2019-03-23T14:54:29.927Z,13.25
2019-03-23T14:56:57.388Z,13.39
2019-03-23T14:59:24.841Z,13.29
2019-03-23T15:01:52.288Z,13.37
2019-03-23T15:06:53.483Z,13.25
2019-03-23T15:09:21.717Z,13.55
2019-03-23T15:11:50.547Z,13.58
2019-03-23T15:14:18.204Z,13.65
2019-03-23T15:16:45.639Z,13.63
2019-03-23T15:19:13.091Z,13.77
2019-03-23T15:21:40.585Z,13.40
2019-03-23T15:24:08.100Z,13.50
2019-03-23T15:26:35.538Z,13.54
2019-03-23T15:29:04.973Z,13.70
2019-03-23T15:31:32.533Z,13.35
2019-03-23T15:34:00.047Z,13.21
2019-03-23T15:36:27.523Z,13.17
2019-03-23T15:38:55.011Z,13.23
2019-03-23T15:41:22.450Z,13.11
2019-03-23T15:43:49.945Z,12.81
2019-03-23T15:46:17.406Z,13.03
2019-03-23T15:48:44.860Z,12.96
2019-03-23T15:51:12.406Z,13.41
2019-03-23T15:53:39.896Z,13.17
2019-03-23T15:56:07.388Z,13.39
2019-03-23T15:58:34.850Z,12.95
2019-03-23T16:01:02.332Z,12.93
2019-03-23T16:03:29.764Z,13.43
2019-03-23T16:05:57.237Z,13.39
2019-03-23T16:08:24.708Z,13.28
2019-03-23T16:10:52.820Z,13.41
2019-03-23T16:13:20.286Z,13.58
2019-03-23T16:15:48.283Z,13.34
2019-03-23T16:18:15.777Z,13.70
2019-03-23T16:20:43.260Z,13.52
2019-03-23T16:23:10.746Z,13.52
2019-03-23T16:25:38.199Z,13.02
2019-03-23T16:28:05.631Z,13.29
2019-03-23T16:30:33.120Z,13.36
2019-03-23T16:33:00.572Z,13.15
2019-03-23T16:35:28.028Z,13.41
2019-03-23T16:37:55.486Z,12.78
2019-03-23T16:40:23.343Z,12.83
2019-03-23T16:42:50.814Z,12.63
2019-03-23T16:45:18.309Z,12.56
2019-03-23T16:47:45.765Z,12.71
2019-03-23T16:50:13.286Z,12.77
2019-03-23T16:52:40.832Z,12.88
2019-03-23T16:55:08.302Z,12.37
2019-03-23T16:57:35.771Z,12.67
2019-03-23T17:00:03.240Z,12.74
2019-03-23T17:02:30.690Z,12.82
2019-03-23T17:04:58.182Z,12.79
2019-03-23T17:07:25.650Z,12.96
2019-03-23T17:09:53.845Z,13.18
2019-03-23T17:12:21.326Z,13.05
2019-03-23T17:14:48.794Z,13.09
2019-03-23T17:17:16.265Z,13.12
2019-03-23T17:19:43.775Z,13.20
2019-03-23T17:22:11.237Z,13.48
2019-03-23T17:24:38.697Z,13.60
2019-03-23T17:27:06.166Z,13.45
2019-03-23T17:29:33.610Z,13.54
2019-03-23T17:32:01.113Z,13.66
2019-03-23T17:34:28.588Z,13.68
2019-03-23T17:36:56.042Z,13.70
2019-03-23T17:39:24.517Z,13.74
2019-03-23T17:41:52.008Z,13.75
2019-03-23T17:44:19.502Z,13.74
2019-03-23T17:46:46.948Z,13.76
2019-03-23T17:49:15.447Z,13.63
2019-03-23T17:51:43.002Z,13.65
2019-03-23T17:54:10.483Z,13.69
2019-03-23T17:56:37.984Z,13.56
2019-03-23T17:59:05.439Z,13.62
2019-03-23T18:01:33.883Z,13.71
2019-03-23T18:04:01.883Z,13.68
2019-03-23T18:06:29.374Z,13.74
2019-03-23T18:08:56.889Z,13.77
2019-03-23T18:11:24.341Z,13.78
2019-03-23T18:13:51.859Z,13.80
2019-03-23T18:16:19.398Z,13.78
2019-03-23T18:18:46.942Z,13.78
2019-03-23T18:21:14.411Z,13.75
2019-03-23T18:23:41.861Z,13.76
2019-03-23T18:26:09.310Z,13.77
2019-03-23T18:28:36.794Z,13.77
2019-03-23T18:31:04.257Z,13.75
2019-03-23T18:33:31.726Z,13.67
2019-03-23T18:35:59.184Z,13.68
2019-03-23T18:38:26.666Z,13.73
2019-03-23T18:40:54.209Z,13.67
2019-03-23T18:43:27.322Z,13.64
2019-03-23T18:45:49.143Z,13.72
2019-03-23T18:48:16.594Z,13.68
2019-03-23T18:50:44.051Z,13.68
2019-03-23T18:53:11.509Z,13.58
2019-03-23T18:55:38.982Z,13.54
2019-03-23T18:58:06.469Z,13.55
2019-03-23T19:00:41.906Z,13.22
2019-03-23T19:03:09.374Z,13.52
2019-03-23T19:05:36.836Z,13.57
2019-03-23T19:08:04.364Z,13.55
2019-03-23T19:10:33.683Z,13.55
2019-03-23T19:13:01.240Z,13.43
2019-03-23T19:15:28.705Z,13.42
2019-03-23T19:17:56.174Z,13.36
2019-03-23T19:20:23.710Z,13.36
2019-03-23T19:22:51.143Z,13.28
2019-03-23T19:25:18.681Z,13.27
2019-03-23T19:27:46.112Z,13.15
2019-03-23T19:30:13.584Z,12.99
2019-03-23T19:32:41.058Z,13.09
2019-03-23T19:35:08.545Z,12.92
2019-03-23T19:37:35.989Z,12.96
2019-03-23T19:40:03.530Z,12.86
2019-03-23T19:42:31.086Z,12.80
2019-03-23T19:44:58.561Z,12.85
2019-03-23T19:47:26.018Z,12.82
2019-03-23T19:49:53.486Z,12.82
2019-03-23T19:52:20.935Z,12.76
2019-03-23T19:54:48.485Z,12.75
2019-03-23T19:57:16.037Z,12.70
2019-03-23T19:59:43.471Z,12.71
2019-03-23T20:02:11.017Z,12.71
2019-03-23T20:04:38.524Z,12.68
2019-03-23T20:07:05.997Z,12.68
2019-03-23T20:09:33.492Z,12.64
2019-03-23T20:12:01.011Z,12.62
2019-03-23T20:14:28.490Z,12.61
2019-03-23T20:16:55.986Z,12.57
2019-03-23T20:19:23.451Z,12.61
2019-03-23T20:21:51.790Z,12.58
2019-03-23T20:24:19.293Z,12.63
2019-03-23T20:26:46.727Z,12.61
2019-03-23T20:29:14.215Z,12.57
2019-03-23T20:31:41.709Z,12.58
2019-03-23T20:34:09.200Z,12.63
2019-03-23T20:36:36.680Z,12.63
2019-03-23T20:39:04.138Z,12.55
2019-03-23T20:41:31.634Z,12.60
2019-03-23T20:44:08.839Z,12.56
2019-03-23T20:46:26.581Z,12.56
2019-03-23T20:48:54.117Z,12.55
2019-03-23T20:51:21.586Z,12.57
2019-03-23T20:53:49.042Z,12.57
2019-03-23T20:56:16.578Z,12.54
2019-03-23T20:58:44.073Z,12.52
2019-03-23T21:01:11.531Z,12.52
2019-03-23T21:03:39.005Z,12.47
2019-03-23T21:06:06.505Z,12.37
2019-03-23T21:08:33.968Z,12.37
2019-03-23T21:11:01.489Z,12.48
2019-03-23T21:13:28.969Z,12.48
2019-03-23T21:15:56.399Z,12.47
2019-03-23T21:18:23.890Z,12.46
2019-03-23T21:20:51.429Z,12.47
2019-03-23T21:23:18.916Z,12.47
2019-03-23T21:25:46.427Z,12.47
2019-03-23T21:28:13.918Z,12.43
2019-03-23T21:30:41.376Z,12.44
2019-03-23T21:33:08.869Z,12.40
2019-03-23T21:35:37.129Z,12.43
2019-03-23T21:38:04.616Z,12.33
2019-03-23T21:40:32.161Z,12.27
2019-03-23T21:42:59.623Z,12.26
2019-03-23T21:45:27.098Z,12.26
2019-03-23T21:47:54.578Z,12.15
2019-03-23T21:50:22.019Z,12.10
2019-03-23T21:52:50.169Z,12.12
2019-03-23T21:55:17.752Z,12.12
2019-03-23T21:57:45.234Z,12.10
2019-03-23T22:00:12.819Z,12.05
2019-03-23T22:02:40.366Z,12.00
2019-03-23T22:05:08.378Z,12.02
2019-03-23T22:07:36.043Z,12.00
2019-03-23T22:10:03.531Z,11.94
2019-03-23T22:12:31.012Z,11.94
2019-03-23T22:14:58.483Z,11.92
2019-03-23T22:17:25.950Z,11.89
2019-03-23T22:19:53.439Z,11.86
2019-03-23T22:22:21.040Z,11.83
2019-03-23T22:24:48.516Z,11.81
2019-03-23T22:27:16.265Z,11.74
2019-03-23T22:29:43.803Z,11.77
2019-03-23T22:32:11.434Z,11.53
2019-03-23T22:34:39.570Z,11.71
2019-03-23T22:37:07.103Z,11.72
2019-03-23T22:39:34.582Z,11.73
2019-03-23T22:42:02.049Z,11.65
2019-03-23T22:44:29.510Z,11.69
2019-03-23T22:46:56.981Z,11.71
2019-03-23T22:49:24.451Z,11.71
2019-03-23T22:51:51.909Z,11.75
2019-03-23T22:54:19.412Z,11.72
2019-03-23T22:56:46.847Z,11.74
2019-03-23T22:59:15.400Z,11.67
2019-03-23T23:01:41.902Z,11.58
2019-03-23T23:04:09.646Z,11.65
2019-03-23T23:06:37.097Z,11.61
2019-03-23T23:09:04.557Z,11.65
2019-03-23T23:11:32.111Z,11.66
2019-03-23T23:13:59.589Z,11.64
2019-03-23T23:16:27.050Z,11.63
2019-03-23T23:18:54.538Z,11.58
2019-03-23T23:21:22.017Z,11.57
2019-03-23T23:23:49.574Z,11.56
2019-03-23T23:26:17.072Z,11.46
2019-03-23T23:28:44.735Z,11.54
2019-03-23T23:31:12.172Z,11.47
2019-03-23T23:33:39.683Z,11.45
2019-03-23T23:36:07.167Z,11.50
2019-03-23T23:38:34.619Z,11.55
2019-03-23T23:41:02.086Z,11.54
2019-03-23T23:43:29.533Z,11.60
2019-03-23T23:45:57.020Z,11.58
2019-03-23T23:48:24.472Z,11.62
2019-03-23T23:50:51.992Z,11.58
2019-03-23T23:53:19.459Z,11.58
2019-03-23T23:55:46.922Z,11.58
2019-03-23T23:58:14.777Z,11.46
